Pagrindinis puslapis
METAR-TAF:

METAR-TAF

Oro uostai :

Middleton Island, Aliaska, Jungtinės Amerikos Valstijos

platuma: 59-26N, ilguma: 146-18W, Aukštis: 27 m

Dabartinis oras

Ataskaita buvo paskelbta 44 minutes, ne 21:51 UTC
Vėjas 22 kt iš Rytų/Pietryčių su gūsio iki 29 kt
Temperatūra 12°C
Drėgmė 100%
Slėgis 999 hPa
Matomumas: 9.7 km
Apsiniaukę ne aukštis 700 ft
rūkana

METAR: PAMD 302151Z AUTO 12022G29KT 6SM BR OVC007 12/12 A2951 RMK AO2 PK WND 12030/2054 SLP982 T01220117

Laikas: 14:35 (22:35 UTC)


TAF: trūkstamas

Orai ataskaitas ir orų prognozės (METAR, TAF).

turimą stotys yra geltonos ir raudonos taškus žemėlapyje.

Perkelti pele per norėdami pamatyti stoties vardą.

Tada spustelėkite, norėdami matyti oro stebėjimo ir prognozės.

Norėdami pakeisti žemėlapį: spustelėkite ant žalios mygtukų su juodo kryžiaus žemyn,; žalią mygtuką su brūkšneliu, jei norite nutolinti; arba žalių rodyklių gretimoms žemėlapius.


METAR-TAF: